sensor_id;sensor_type;location;lat;lon;timestamp;P1;durP1;ratioP1;P2;durP2;ratioP2
64210;SDS011;50528;48.514;14.394;2023-05-07T00:00:17;5.50;;;4.30;;
64210;SDS011;50528;48.514;14.394;2023-05-07T00:01:11;6.60;;;4.20;;
64210;SDS011;50528;48.514;14.394;2023-05-07T00:01:45;4.80;;;4.00;;
64210;SDS011;50528;48.514;14.394;2023-05-07T00:02:18;6.10;;;4.20;;
64210;SDS011;50528;48.514;14.394;2023-05-07T00:02:52;4.80;;;3.80;;
64210;SDS011;50528;48.514;14.394;2023-05-07T00:03:26;6.20;;;4.30;;
64210;SDS011;50528;48.514;14.394;2023-05-07T00:04:00;5.70;;;3.90;;
64210;SDS011;50528;48.514;14.394;2023-05-07T00:04:33;9.20;;;4.00;;
64210;SDS011;50528;48.514;14.394;2023-05-07T00:05:10;5.60;;;4.00;;
64210;SDS011;50528;48.514;14.394;2023-05-07T00:05:44;5.20;;;4.00;;
64210;SDS011;50528;48.514;14.394;2023-05-07T00:06:17;5.10;;;4.20;;
64210;SDS011;50528;48.514;14.394;2023-05-07T00:06:50;5.10;;;3.90;;
64210;SDS011;50528;48.514;14.394;2023-05-07T00:07:24;5.30;;;4.00;;
64210;SDS011;50528;48.514;14.394;2023-05-07T00:07:57;6.10;;;4.20;;
64210;SDS011;50528;48.514;14.394;2023-05-07T00:08:31;5.90;;;4.10;;
64210;SDS011;50528;48.514;14.394;2023-05-07T00:09:05;6.40;;;4.10;;
64210;SDS011;50528;48.514;14.394;2023-05-07T00:09:38;5.20;;;4.00;;
64210;SDS011;50528;48.514;14.394;2023-05-07T00:10:11;5.10;;;4.10;;
64210;SDS011;50528;48.514;14.394;2023-05-07T00:10:48;6.80;;;4.10;;
64210;SDS011;50528;48.514;14.394;2023-05-07T00:11:27;6.90;;;4.00;;
64210;SDS011;50528;48.514;14.394;2023-05-07T00:12:01;5.90;;;4.00;;
64210;SDS011;50528;48.514;14.394;2023-05-07T00:12:34;4.70;;;3.90;;
64210;SDS011;50528;48.514;14.394;2023-05-07T00:13:07;5.60;;;3.90;;
64210;SDS011;50528;48.514;14.394;2023-05-07T00:13:41;5.40;;;4.10;;
64210;SDS011;50528;48.514;14.394;2023-05-07T00:14:14;4.80;;;3.70;;
64210;SDS011;50528;48.514;14.394;2023-05-07T00:14:47;6.00;;;3.80;;
64210;SDS011;50528;48.514;14.394;2023-05-07T00:15:21;5.40;;;4.30;;
64210;SDS011;50528;48.514;14.394;2023-05-07T00:15:54;5.10;;;3.80;;
64210;SDS011;50528;48.514;14.394;2023-05-07T00:16:28;4.50;;;4.00;;
64210;SDS011;50528;48.514;14.394;2023-05-07T00:17:01;4.40;;;3.60;;
64210;SDS011;50528;48.514;14.394;2023-05-07T00:17:35;6.30;;;4.10;;
64210;SDS011;50528;48.514;14.394;2023-05-07T00:18:08;5.60;;;4.00;;
64210;SDS011;50528;48.514;14.394;2023-05-07T00:18:41;5.60;;;4.00;;
64210;SDS011;50528;48.514;14.394;2023-05-07T00:19:15;5.30;;;4.00;;
64210;SDS011;50528;48.514;14.394;2023-05-07T00:19:48;5.50;;;3.90;;
64210;SDS011;50528;48.514;14.394;2023-05-07T00:20:21;6.80;;;4.20;;
64210;SDS011;50528;48.514;14.394;2023-05-07T00:20:55;5.00;;;3.80;;
64210;SDS011;50528;48.514;14.394;2023-05-07T00:21:29;5.10;;;3.60;;
64210;SDS011;50528;48.514;14.394;2023-05-07T00:22:03;6.30;;;4.10;;
64210;SDS011;50528;48.514;14.394;2023-05-07T00:22:36;7.70;;;4.00;;
64210;SDS011;50528;48.514;14.394;2023-05-07T00:23:10;6.40;;;3.80;;
64210;SDS011;50528;48.514;14.394;2023-05-07T00:23:43;6.30;;;3.90;;
64210;SDS011;50528;48.514;14.394;2023-05-07T00:24:17;4.90;;;3.80;;
64210;SDS011;50528;48.514;14.394;2023-05-07T00:24:50;5.30;;;4.00;;
64210;SDS011;50528;48.514;14.394;2023-05-07T00:25:23;5.30;;;4.00;;
64210;SDS011;50528;48.514;14.394;2023-05-07T00:25:57;6.90;;;4.20;;
64210;SDS011;50528;48.514;14.394;2023-05-07T00:26:30;4.90;;;3.80;;
64210;SDS011;50528;48.514;14.394;2023-05-07T00:27:04;6.00;;;4.10;;
64210;SDS011;50528;48.514;14.394;2023-05-07T00:27:37;5.90;;;4.40;;
64210;SDS011;50528;48.514;14.394;2023-05-07T00:28:12;6.60;;;4.20;;
64210;SDS011;50528;48.514;14.394;2023-05-07T00:28:46;4.90;;;4.00;;
64210;SDS011;50528;48.514;14.394;2023-05-07T00:29:19;4.90;;;3.80;;
64210;SDS011;50528;48.514;14.394;2023-05-07T00:29:53;5.70;;;4.30;;
64210;SDS011;50528;48.514;14.394;2023-05-07T00:30:26;5.80;;;4.50;;
64210;SDS011;50528;48.514;14.394;2023-05-07T00:30:59;5.10;;;4.00;;
64210;SDS011;50528;48.514;14.394;2023-05-07T00:31:33;5.90;;;4.30;;
64210;SDS011;50528;48.514;14.394;2023-05-07T00:32:06;5.80;;;4.30;;
64210;SDS011;50528;48.514;14.394;2023-05-07T00:32:41;6.00;;;4.30;;
64210;SDS011;50528;48.514;14.394;2023-05-07T00:33:14;5.80;;;4.30;;
64210;SDS011;50528;48.514;14.394;2023-05-07T00:33:47;5.90;;;4.10;;
64210;SDS011;50528;48.514;14.394;2023-05-07T00:34:20;6.40;;;4.30;;
64210;SDS011;50528;48.514;14.394;2023-05-07T00:34:54;6.80;;;4.40;;
64210;SDS011;50528;48.514;14.394;2023-05-07T00:35:28;5.50;;;4.10;;
64210;SDS011;50528;48.514;14.394;2023-05-07T00:36:02;6.00;;;4.40;;
64210;SDS011;50528;48.514;14.394;2023-05-07T00:36:36;7.10;;;4.10;;
64210;SDS011;50528;48.514;14.394;2023-05-07T00:37:09;4.70;;;4.10;;
64210;SDS011;50528;48.514;14.394;2023-05-07T00:37:42;6.20;;;4.20;;
64210;SDS011;50528;48.514;14.394;2023-05-07T00:38:16;8.10;;;4.00;;
64210;SDS011;50528;48.514;14.394;2023-05-07T00:38:49;5.50;;;4.00;;
64210;SDS011;50528;48.514;14.394;2023-05-07T00:39:22;5.60;;;4.40;;
64210;SDS011;50528;48.514;14.394;2023-05-07T00:39:55;5.00;;;4.20;;
64210;SDS011;50528;48.514;14.394;2023-05-07T00:40:29;6.60;;;4.40;;
64210;SDS011;50528;48.514;14.394;2023-05-07T00:41:02;6.00;;;4.40;;
64210;SDS011;50528;48.514;14.394;2023-05-07T00:41:35;5.90;;;4.50;;
64210;SDS011;50528;48.514;14.394;2023-05-07T00:42:08;6.40;;;4.30;;
64210;SDS011;50528;48.514;14.394;2023-05-07T00:42:42;6.10;;;4.60;;
64210;SDS011;50528;48.514;14.394;2023-05-07T00:43:20;6.10;;;4.70;;
64210;SDS011;50528;48.514;14.394;2023-05-07T00:43:53;5.40;;;4.30;;
64210;SDS011;50528;48.514;14.394;2023-05-07T00:44:26;7.20;;;4.60;;
64210;SDS011;50528;48.514;14.394;2023-05-07T00:44:59;5.00;;;4.50;;
64210;SDS011;50528;48.514;14.394;2023-05-07T00:45:32;6.40;;;4.80;;
64210;SDS011;50528;48.514;14.394;2023-05-07T00:46:06;6.50;;;4.30;;
64210;SDS011;50528;48.514;14.394;2023-05-07T00:46:40;5.70;;;4.50;;
64210;SDS011;50528;48.514;14.394;2023-05-07T00:47:13;5.60;;;4.70;;
64210;SDS011;50528;48.514;14.394;2023-05-07T00:47:47;5.90;;;4.50;;
64210;SDS011;50528;48.514;14.394;2023-05-07T00:48:20;7.50;;;4.60;;
64210;SDS011;50528;48.514;14.394;2023-05-07T00:48:53;5.60;;;4.90;;
64210;SDS011;50528;48.514;14.394;2023-05-07T00:49:32;6.60;;;4.70;;
64210;SDS011;50528;48.514;14.394;2023-05-07T00:50:12;5.50;;;4.50;;
64210;SDS011;50528;48.514;14.394;2023-05-07T00:50:46;6.00;;;4.40;;
64210;SDS011;50528;48.514;14.394;2023-05-07T00:51:20;6.00;;;4.80;;
64210;SDS011;50528;48.514;14.394;2023-05-07T00:51:54;7.40;;;4.80;;
64210;SDS011;50528;48.514;14.394;2023-05-07T00:52:27;5.70;;;4.20;;
64210;SDS011;50528;48.514;14.394;2023-05-07T00:53:02;5.40;;;4.40;;
64210;SDS011;50528;48.514;14.394;2023-05-07T00:53:36;7.00;;;4.80;;
64210;SDS011;50528;48.514;14.394;2023-05-07T00:54:10;5.90;;;4.70;;
64210;SDS011;50528;48.514;14.394;2023-05-07T00:54:43;6.50;;;4.50;;
64210;SDS011;50528;48.514;14.394;2023-05-07T00:55:17;6.50;;;4.90;;
64210;SDS011;50528;48.514;14.394;2023-05-07T00:55:51;6.80;;;4.40;;
64210;SDS011;50528;48.514;14.394;2023-05-07T00:56:25;6.40;;;4.50;;
64210;SDS011;50528;48.514;14.394;2023-05-07T00:56:59;6.20;;;4.80;;
64210;SDS011;50528;48.514;14.394;2023-05-07T00:57:36;7.00;;;4.70;;
64210;SDS011;50528;48.514;14.394;2023-05-07T00:58:10;8.20;;;5.10;;
64210;SDS011;50528;48.514;14.394;2023-05-07T00:58:43;6.90;;;4.80;;
64210;SDS011;50528;48.514;14.394;2023-05-07T00:59:17;5.60;;;4.90;;
64210;SDS011;50528;48.514;14.394;2023-05-07T00:59:51;5.70;;;4.90;;
64210;SDS011;50528;48.514;14.394;2023-05-07T01:00:32;6.10;;;5.00;;
64210;SDS011;50528;48.514;14.394;2023-05-07T01:01:05;6.50;;;5.50;;
64210;SDS011;50528;48.514;14.394;2023-05-07T01:01:39;6.90;;;6.00;;
64210;SDS011;50528;48.514;14.394;2023-05-07T01:02:13;7.30;;;6.20;;
64210;SDS011;50528;48.514;14.394;2023-05-07T01:02:46;7.30;;;5.70;;
64210;SDS011;50528;48.514;14.394;2023-05-07T01:03:20;8.40;;;6.20;;
64210;SDS011;50528;48.514;14.394;2023-05-07T01:03:54;7.00;;;6.10;;
64210;SDS011;50528;48.514;14.394;2023-05-07T01:04:28;7.00;;;6.20;;
64210;SDS011;50528;48.514;14.394;2023-05-07T01:05:03;7.80;;;6.60;;
64210;SDS011;50528;48.514;14.394;2023-05-07T01:05:40;8.20;;;6.80;;
64210;SDS011;50528;48.514;14.394;2023-05-07T01:06:15;8.50;;;6.70;;
64210;SDS011;50528;48.514;14.394;2023-05-07T01:06:50;7.40;;;6.50;;
64210;SDS011;50528;48.514;14.394;2023-05-07T01:07:25;7.50;;;6.60;;
64210;SDS011;50528;48.514;14.394;2023-05-07T01:07:59;8.60;;;7.10;;
64210;SDS011;50528;48.514;14.394;2023-05-07T01:08:34;8.70;;;7.30;;
64210;SDS011;50528;48.514;14.394;2023-05-07T01:09:08;9.80;;;7.10;;
64210;SDS011;50528;48.514;14.394;2023-05-07T01:09:42;9.20;;;7.50;;
64210;SDS011;50528;48.514;14.394;2023-05-07T01:10:15;8.60;;;7.40;;
64210;SDS011;50528;48.514;14.394;2023-05-07T01:10:49;9.30;;;7.40;;
64210;SDS011;50528;48.514;14.394;2023-05-07T01:11:24;8.40;;;7.20;;
64210;SDS011;50528;48.514;14.394;2023-05-07T01:11:58;9.10;;;7.40;;
64210;SDS011;50528;48.514;14.394;2023-05-07T01:12:32;10.10;;;7.80;;
64210;SDS011;50528;48.514;14.394;2023-05-07T01:13:07;11.50;;;7.50;;
64210;SDS011;50528;48.514;14.394;2023-05-07T01:13:40;7.90;;;7.10;;
64210;SDS011;50528;48.514;14.394;2023-05-07T01:14:15;8.40;;;7.30;;
64210;SDS011;50528;48.514;14.394;2023-05-07T01:14:48;9.00;;;7.50;;
64210;SDS011;50528;48.514;14.394;2023-05-07T01:15:23;8.30;;;7.20;;
64210;SDS011;50528;48.514;14.394;2023-05-07T01:15:56;8.30;;;7.40;;
64210;SDS011;50528;48.514;14.394;2023-05-07T01:16:30;9.80;;;7.50;;
64210;SDS011;50528;48.514;14.394;2023-05-07T01:17:04;9.10;;;7.30;;
64210;SDS011;50528;48.514;14.394;2023-05-07T01:17:38;9.50;;;7.80;;
64210;SDS011;50528;48.514;14.394;2023-05-07T01:18:17;9.30;;;7.20;;
64210;SDS011;50528;48.514;14.394;2023-05-07T01:18:51;8.60;;;7.30;;
64210;SDS011;50528;48.514;14.394;2023-05-07T01:19:24;9.60;;;7.90;;
64210;SDS011;50528;48.514;14.394;2023-05-07T01:19:58;9.30;;;7.80;;
64210;SDS011;50528;48.514;14.394;2023-05-07T01:20:32;10.10;;;8.20;;
64210;SDS011;50528;48.514;14.394;2023-05-07T01:21:06;10.20;;;7.70;;
64210;SDS011;50528;48.514;14.394;2023-05-07T01:21:44;8.80;;;7.80;;
64210;SDS011;50528;48.514;14.394;2023-05-07T01:22:32;9.40;;;7.70;;
64210;SDS011;50528;48.514;14.394;2023-05-07T01:23:07;8.50;;;7.60;;
64210;SDS011;50528;48.514;14.394;2023-05-07T01:23:41;9.30;;;7.70;;
64210;SDS011;50528;48.514;14.394;2023-05-07T01:24:15;9.70;;;7.90;;
64210;SDS011;50528;48.514;14.394;2023-05-07T01:24:49;8.70;;;7.80;;
64210;SDS011;50528;48.514;14.394;2023-05-07T01:25:22;9.30;;;8.00;;
64210;SDS011;50528;48.514;14.394;2023-05-07T01:25:58;10.30;;;7.90;;
64210;SDS011;50528;48.514;14.394;2023-05-07T01:26:32;9.40;;;7.60;;
64210;SDS011;50528;48.514;14.394;2023-05-07T01:27:05;9.60;;;8.00;;
64210;SDS011;50528;48.514;14.394;2023-05-07T01:27:39;9.80;;;8.00;;
64210;SDS011;50528;48.514;14.394;2023-05-07T01:28:12;8.70;;;7.10;;
64210;SDS011;50528;48.514;14.394;2023-05-07T01:28:46;8.80;;;7.90;;
64210;SDS011;50528;48.514;14.394;2023-05-07T01:29:19;8.30;;;7.40;;
64210;SDS011;50528;48.514;14.394;2023-05-07T01:29:53;8.60;;;7.30;;
64210;SDS011;50528;48.514;14.394;2023-05-07T01:30:26;10.00;;;7.80;;
64210;SDS011;50528;48.514;14.394;2023-05-07T01:31:02;8.20;;;7.30;;
64210;SDS011;50528;48.514;14.394;2023-05-07T01:31:37;9.40;;;7.60;;
64210;SDS011;50528;48.514;14.394;2023-05-07T01:32:13;8.70;;;7.60;;
64210;SDS011;50528;48.514;14.394;2023-05-07T01:32:55;8.90;;;7.70;;
64210;SDS011;50528;48.514;14.394;2023-05-07T01:33:33;8.20;;;7.30;;
64210;SDS011;50528;48.514;14.394;2023-05-07T01:34:10;9.20;;;7.20;;
64210;SDS011;50528;48.514;14.394;2023-05-07T01:34:45;8.20;;;6.80;;
64210;SDS011;50528;48.514;14.394;2023-05-07T01:35:22;9.10;;;7.10;;
64210;SDS011;50528;48.514;14.394;2023-05-07T01:35:57;8.20;;;7.10;;
64210;SDS011;50528;48.514;14.394;2023-05-07T01:36:35;8.90;;;7.10;;
64210;SDS011;50528;48.514;14.394;2023-05-07T01:37:11;9.00;;;6.80;;
64210;SDS011;50528;48.514;14.394;2023-05-07T01:37:46;8.20;;;7.10;;
64210;SDS011;50528;48.514;14.394;2023-05-07T01:38:21;7.40;;;6.60;;
64210;SDS011;50528;48.514;14.394;2023-05-07T01:38:56;8.40;;;7.10;;
64210;SDS011;50528;48.514;14.394;2023-05-07T01:39:31;8.90;;;6.70;;
64210;SDS011;50528;48.514;14.394;2023-05-07T01:40:06;9.00;;;7.10;;
64210;SDS011;50528;48.514;14.394;2023-05-07T01:40:41;8.30;;;6.60;;
64210;SDS011;50528;48.514;14.394;2023-05-07T01:41:14;8.90;;;6.50;;
64210;SDS011;50528;48.514;14.394;2023-05-07T01:41:48;8.20;;;6.50;;
64210;SDS011;50528;48.514;14.394;2023-05-07T01:42:22;7.70;;;6.30;;
64210;SDS011;50528;48.514;14.394;2023-05-07T01:42:55;8.10;;;6.30;;
64210;SDS011;50528;48.514;14.394;2023-05-07T01:43:29;7.40;;;6.10;;
64210;SDS011;50528;48.514;14.394;2023-05-07T01:44:03;6.90;;;6.20;;
64210;SDS011;50528;48.514;14.394;2023-05-07T01:44:38;6.90;;;5.90;;
64210;SDS011;50528;48.514;14.394;2023-05-07T01:45:11;6.70;;;5.90;;
64210;SDS011;50528;48.514;14.394;2023-05-07T01:45:44;6.40;;;5.60;;
64210;SDS011;50528;48.514;14.394;2023-05-07T01:46:18;8.00;;;6.00;;
64210;SDS011;50528;48.514;14.394;2023-05-07T01:46:52;8.00;;;6.00;;
64210;SDS011;50528;48.514;14.394;2023-05-07T01:47:27;6.70;;;6.00;;
64210;SDS011;50528;48.514;14.394;2023-05-07T01:48:02;6.40;;;5.70;;
64210;SDS011;50528;48.514;14.394;2023-05-07T01:48:36;7.60;;;5.80;;
64210;SDS011;50528;48.514;14.394;2023-05-07T01:51:16;6.30;;;5.40;;
64210;SDS011;50528;48.514;14.394;2023-05-07T01:51:49;7.80;;;6.10;;
64210;SDS011;50528;48.514;14.394;2023-05-07T01:52:23;7.80;;;5.80;;
64210;SDS011;50528;48.514;14.394;2023-05-07T01:52:57;7.00;;;5.90;;
64210;SDS011;50528;48.514;14.394;2023-05-07T01:53:37;7.50;;;6.10;;
64210;SDS011;50528;48.514;14.394;2023-05-07T01:54:11;7.50;;;5.70;;
64210;SDS011;50528;48.514;14.394;2023-05-07T01:54:44;6.70;;;5.90;;
64210;SDS011;50528;48.514;14.394;2023-05-07T01:55:18;7.10;;;5.40;;
64210;SDS011;50528;48.514;14.394;2023-05-07T01:55:52;6.40;;;5.60;;
64210;SDS011;50528;48.514;14.394;2023-05-07T01:56:26;7.90;;;6.40;;
64210;SDS011;50528;48.514;14.394;2023-05-07T01:56:59;7.50;;;6.50;;
64210;SDS011;50528;48.514;14.394;2023-05-07T01:57:33;6.90;;;6.10;;
64210;SDS011;50528;48.514;14.394;2023-05-07T01:58:06;8.40;;;6.60;;
64210;SDS011;50528;48.514;14.394;2023-05-07T01:58:40;7.40;;;6.50;;
64210;SDS011;50528;48.514;14.394;2023-05-07T01:59:13;8.40;;;6.40;;
64210;SDS011;50528;48.514;14.394;2023-05-07T01:59:46;8.10;;;7.00;;
64210;SDS011;50528;48.514;14.394;2023-05-07T02:00:20;8.10;;;6.80;;
64210;SDS011;50528;48.514;14.394;2023-05-07T02:00:53;9.10;;;6.80;;
64210;SDS011;50528;48.514;14.394;2023-05-07T02:01:26;8.90;;;6.80;;
64210;SDS011;50528;48.514;14.394;2023-05-07T02:02:00;9.50;;;7.20;;
64210;SDS011;50528;48.514;14.394;2023-05-07T02:02:34;9.50;;;7.00;;
64210;SDS011;50528;48.514;14.394;2023-05-07T02:03:08;8.50;;;7.60;;
64210;SDS011;50528;48.514;14.394;2023-05-07T02:03:45;9.00;;;7.50;;
64210;SDS011;50528;48.514;14.394;2023-05-07T02:04:23;9.00;;;7.80;;
64210;SDS011;50528;48.514;14.394;2023-05-07T02:04:58;9.80;;;8.00;;
64210;SDS011;50528;48.514;14.394;2023-05-07T02:05:32;9.20;;;8.30;;
64210;SDS011;50528;48.514;14.394;2023-05-07T02:06:14;9.50;;;8.00;;
64210;SDS011;50528;48.514;14.394;2023-05-07T02:06:48;10.40;;;8.40;;
64210;SDS011;50528;48.514;14.394;2023-05-07T02:07:22;10.90;;;8.40;;
64210;SDS011;50528;48.514;14.394;2023-05-07T02:07:55;10.60;;;9.10;;
64210;SDS011;50528;48.514;14.394;2023-05-07T02:08:28;9.40;;;8.50;;
64210;SDS011;50528;48.514;14.394;2023-05-07T02:09:03;10.70;;;8.70;;
64210;SDS011;50528;48.514;14.394;2023-05-07T02:09:37;8.90;;;7.70;;
64210;SDS011;50528;48.514;14.394;2023-05-07T02:10:11;11.40;;;8.30;;
64210;SDS011;50528;48.514;14.394;2023-05-07T02:10:45;10.40;;;7.80;;
64210;SDS011;50528;48.514;14.394;2023-05-07T02:11:18;10.10;;;8.40;;
64210;SDS011;50528;48.514;14.394;2023-05-07T02:11:52;10.80;;;8.40;;
64210;SDS011;50528;48.514;14.394;2023-05-07T02:12:26;10.00;;;8.30;;
64210;SDS011;50528;48.514;14.394;2023-05-07T02:12:59;10.50;;;9.00;;
64210;SDS011;50528;48.514;14.394;2023-05-07T02:13:35;9.80;;;8.00;;
64210;SDS011;50528;48.514;14.394;2023-05-07T02:14:08;9.90;;;8.30;;
64210;SDS011;50528;48.514;14.394;2023-05-07T02:14:42;11.50;;;8.90;;
64210;SDS011;50528;48.514;14.394;2023-05-07T02:15:15;9.80;;;8.80;;
64210;SDS011;50528;48.514;14.394;2023-05-07T02:15:48;10.80;;;9.00;;
64210;SDS011;50528;48.514;14.394;2023-05-07T02:16:23;10.00;;;8.50;;
64210;SDS011;50528;48.514;14.394;2023-05-07T02:16:57;9.70;;;8.70;;
64210;SDS011;50528;48.514;14.394;2023-05-07T02:17:30;11.00;;;9.60;;
64210;SDS011;50528;48.514;14.394;2023-05-07T02:18:07;10.30;;;8.70;;
64210;SDS011;50528;48.514;14.394;2023-05-07T02:18:41;10.60;;;9.50;;
64210;SDS011;50528;48.514;14.394;2023-05-07T02:19:15;10.70;;;9.20;;
64210;SDS011;50528;48.514;14.394;2023-05-07T02:19:48;11.00;;;9.60;;
64210;SDS011;50528;48.514;14.394;2023-05-07T02:20:22;10.90;;;9.70;;
64210;SDS011;50528;48.514;14.394;2023-05-07T02:20:55;12.00;;;10.00;;
64210;SDS011;50528;48.514;14.394;2023-05-07T02:21:28;11.60;;;10.40;;
64210;SDS011;50528;48.514;14.394;2023-05-07T02:22:02;11.00;;;9.90;;
64210;SDS011;50528;48.514;14.394;2023-05-07T02:22:37;13.40;;;11.10;;
64210;SDS011;50528;48.514;14.394;2023-05-07T02:23:10;11.80;;;9.80;;
64210;SDS011;50528;48.514;14.394;2023-05-07T02:23:44;11.90;;;10.60;;
64210;SDS011;50528;48.514;14.394;2023-05-07T02:24:17;12.60;;;10.50;;
64210;SDS011;50528;48.514;14.394;2023-05-07T02:24:50;11.60;;;9.50;;
64210;SDS011;50528;48.514;14.394;2023-05-07T02:25:24;12.60;;;10.30;;
64210;SDS011;50528;48.514;14.394;2023-05-07T02:25:57;16.00;;;10.50;;
64210;SDS011;50528;48.514;14.394;2023-05-07T02:26:31;12.60;;;10.20;;
64210;SDS011;50528;48.514;14.394;2023-05-07T02:27:04;11.30;;;10.10;;
64210;SDS011;50528;48.514;14.394;2023-05-07T02:27:38;12.40;;;10.10;;
64210;SDS011;50528;48.514;14.394;2023-05-07T02:28:11;13.30;;;10.50;;
64210;SDS011;50528;48.514;14.394;2023-05-07T02:28:53;14.40;;;10.50;;
64210;SDS011;50528;48.514;14.394;2023-05-07T02:29:26;12.10;;;10.20;;
64210;SDS011;50528;48.514;14.394;2023-05-07T02:29:59;11.70;;;9.80;;
64210;SDS011;50528;48.514;14.394;2023-05-07T02:30:33;11.30;;;9.60;;
64210;SDS011;50528;48.514;14.394;2023-05-07T02:31:06;12.20;;;10.20;;
64210;SDS011;50528;48.514;14.394;2023-05-07T02:31:40;11.90;;;10.40;;
64210;SDS011;50528;48.514;14.394;2023-05-07T02:32:13;12.10;;;10.50;;
64210;SDS011;50528;48.514;14.394;2023-05-07T02:32:46;12.80;;;10.30;;
64210;SDS011;50528;48.514;14.394;2023-05-07T02:33:19;12.40;;;10.20;;
64210;SDS011;50528;48.514;14.394;2023-05-07T02:33:53;13.40;;;10.60;;
64210;SDS011;50528;48.514;14.394;2023-05-07T02:34:26;11.50;;;10.30;;
64210;SDS011;50528;48.514;14.394;2023-05-07T02:34:59;14.00;;;11.10;;
64210;SDS011;50528;48.514;14.394;2023-05-07T02:35:33;12.50;;;10.80;;
64210;SDS011;50528;48.514;14.394;2023-05-07T02:36:09;12.20;;;10.80;;
64210;SDS011;50528;48.514;14.394;2023-05-07T02:36:50;13.90;;;11.30;;
64210;SDS011;50528;48.514;14.394;2023-05-07T02:37:26;13.90;;;11.30;;
64210;SDS011;50528;48.514;14.394;2023-05-07T02:37:59;14.00;;;10.80;;
64210;SDS011;50528;48.514;14.394;2023-05-07T02:38:33;11.90;;;10.40;;
64210;SDS011;50528;48.514;14.394;2023-05-07T02:39:07;11.90;;;10.70;;
64210;SDS011;50528;48.514;14.394;2023-05-07T02:39:40;12.30;;;10.80;;
64210;SDS011;50528;48.514;14.394;2023-05-07T02:40:13;14.00;;;11.00;;
64210;SDS011;50528;48.514;14.394;2023-05-07T02:40:46;11.70;;;10.50;;
64210;SDS011;50528;48.514;14.394;2023-05-07T02:41:20;13.80;;;10.70;;
64210;SDS011;50528;48.514;14.394;2023-05-07T02:41:53;14.80;;;10.90;;
64210;SDS011;50528;48.514;14.394;2023-05-07T02:42:26;13.30;;;11.30;;
64210;SDS011;50528;48.514;14.394;2023-05-07T02:42:59;14.20;;;11.30;;
64210;SDS011;50528;48.514;14.394;2023-05-07T02:43:33;14.80;;;11.20;;
64210;SDS011;50528;48.514;14.394;2023-05-07T02:44:10;13.50;;;11.60;;
64210;SDS011;50528;48.514;14.394;2023-05-07T02:44:43;12.80;;;10.80;;
64210;SDS011;50528;48.514;14.394;2023-05-07T02:45:16;16.00;;;11.10;;
64210;SDS011;50528;48.514;14.394;2023-05-07T02:45:59;12.40;;;11.10;;
64210;SDS011;50528;48.514;14.394;2023-05-07T02:46:37;14.40;;;10.90;;
64210;SDS011;50528;48.514;14.394;2023-05-07T02:47:14;13.10;;;11.10;;
64210;SDS011;50528;48.514;14.394;2023-05-07T02:47:48;13.30;;;11.40;;
64210;SDS011;50528;48.514;14.394;2023-05-07T02:48:21;14.20;;;11.10;;
64210;SDS011;50528;48.514;14.394;2023-05-07T02:48:54;12.80;;;11.30;;
64210;SDS011;50528;48.514;14.394;2023-05-07T02:49:28;12.80;;;11.20;;
64210;SDS011;50528;48.514;14.394;2023-05-07T02:50:01;13.40;;;11.10;;
64210;SDS011;50528;48.514;14.394;2023-05-07T02:50:35;12.10;;;10.80;;
64210;SDS011;50528;48.514;14.394;2023-05-07T02:51:08;13.30;;;11.60;;
64210;SDS011;50528;48.514;14.394;2023-05-07T02:51:42;12.20;;;10.90;;
64210;SDS011;50528;48.514;14.394;2023-05-07T02:52:19;13.80;;;11.20;;
64210;SDS011;50528;48.514;14.394;2023-05-07T02:52:52;14.20;;;11.70;;
64210;SDS011;50528;48.514;14.394;2023-05-07T02:53:26;13.80;;;11.60;;
64210;SDS011;50528;48.514;14.394;2023-05-07T02:54:00;13.10;;;11.00;;
64210;SDS011;50528;48.514;14.394;2023-05-07T02:54:34;13.10;;;11.70;;
64210;SDS011;50528;48.514;14.394;2023-05-07T02:55:07;15.10;;;11.90;;
64210;SDS011;50528;48.514;14.394;2023-05-07T02:55:41;13.20;;;11.20;;
64210;SDS011;50528;48.514;14.394;2023-05-07T02:56:14;13.20;;;11.60;;
64210;SDS011;50528;48.514;14.394;2023-05-07T02:56:47;15.20;;;11.80;;
64210;SDS011;50528;48.514;14.394;2023-05-07T02:57:21;13.30;;;11.80;;
64210;SDS011;50528;48.514;14.394;2023-05-07T02:57:54;12.60;;;11.30;;
64210;SDS011;50528;48.514;14.394;2023-05-07T02:58:27;15.20;;;11.60;;
64210;SDS011;50528;48.514;14.394;2023-05-07T02:59:02;13.40;;;11.70;;
64210;SDS011;50528;48.514;14.394;2023-05-07T02:59:38;13.20;;;11.30;;
64210;SDS011;50528;48.514;14.394;2023-05-07T03:00:14;13.30;;;11.80;;
64210;SDS011;50528;48.514;14.394;2023-05-07T03:00:56;13.40;;;12.00;;
64210;SDS011;50528;48.514;14.394;2023-05-07T03:01:50;13.00;;;11.10;;
64210;SDS011;50528;48.514;14.394;2023-05-07T03:02:23;16.00;;;11.40;;
64210;SDS011;50528;48.514;14.394;2023-05-07T03:02:57;14.40;;;11.10;;
64210;SDS011;50528;48.514;14.394;2023-05-07T03:03:30;12.30;;;11.00;;
64210;SDS011;50528;48.514;14.394;2023-05-07T03:04:04;13.50;;;11.50;;
64210;SDS011;50528;48.514;14.394;2023-05-07T03:04:38;13.30;;;11.90;;
64210;SDS011;50528;48.514;14.394;2023-05-07T03:05:12;16.00;;;12.50;;
64210;SDS011;50528;48.514;14.394;2023-05-07T03:05:47;13.40;;;11.40;;
64210;SDS011;50528;48.514;14.394;2023-05-07T03:06:20;14.80;;;12.50;;
64210;SDS011;50528;48.514;14.394;2023-05-07T03:06:53;15.70;;;12.50;;
64210;SDS011;50528;48.514;14.394;2023-05-07T03:07:27;15.00;;;12.00;;
64210;SDS011;50528;48.514;14.394;2023-05-07T03:08:00;15.40;;;12.40;;
64210;SDS011;50528;48.514;14.394;2023-05-07T03:08:34;15.50;;;12.60;;
64210;SDS011;50528;48.514;14.394;2023-05-07T03:09:07;15.30;;;12.50;;
64210;SDS011;50528;48.514;14.394;2023-05-07T03:09:41;13.80;;;12.20;;
64210;SDS011;50528;48.514;14.394;2023-05-07T03:10:14;15.50;;;12.10;;
64210;SDS011;50528;48.514;14.394;2023-05-07T03:10:48;13.80;;;12.20;;
64210;SDS011;50528;48.514;14.394;2023-05-07T03:11:21;14.50;;;12.30;;
64210;SDS011;50528;48.514;14.394;2023-05-07T03:11:55;15.40;;;12.00;;
64210;SDS011;50528;48.514;14.394;2023-05-07T03:12:29;14.40;;;12.50;;
64210;SDS011;50528;48.514;14.394;2023-05-07T03:13:03;15.00;;;12.30;;
64210;SDS011;50528;48.514;14.394;2023-05-07T03:13:37;13.90;;;11.90;;
64210;SDS011;50528;48.514;14.394;2023-05-07T03:14:10;15.00;;;12.40;;
64210;SDS011;50528;48.514;14.394;2023-05-07T03:14:44;15.20;;;12.20;;
64210;SDS011;50528;48.514;14.394;2023-05-07T03:15:17;14.90;;;13.30;;
64210;SDS011;50528;48.514;14.394;2023-05-07T03:15:53;14.30;;;12.30;;
64210;SDS011;50528;48.514;14.394;2023-05-07T03:16:26;16.00;;;12.40;;
64210;SDS011;50528;48.514;14.394;2023-05-07T03:16:59;14.40;;;12.70;;
64210;SDS011;50528;48.514;14.394;2023-05-07T03:17:33;15.70;;;12.80;;
64210;SDS011;50528;48.514;14.394;2023-05-07T03:18:06;14.60;;;12.60;;
64210;SDS011;50528;48.514;14.394;2023-05-07T03:18:40;13.20;;;11.80;;
64210;SDS011;50528;48.514;14.394;2023-05-07T03:19:13;14.70;;;12.50;;
64210;SDS011;50528;48.514;14.394;2023-05-07T03:19:46;14.30;;;12.50;;
64210;SDS011;50528;48.514;14.394;2023-05-07T03:20:20;14.30;;;11.80;;
64210;SDS011;50528;48.514;14.394;2023-05-07T03:20:53;15.50;;;12.50;;
64210;SDS011;50528;48.514;14.394;2023-05-07T03:21:27;15.80;;;12.60;;
64210;SDS011;50528;48.514;14.394;2023-05-07T03:22:00;15.20;;;13.20;;
64210;SDS011;50528;48.514;14.394;2023-05-07T03:22:33;14.40;;;12.60;;
64210;SDS011;50528;48.514;14.394;2023-05-07T03:23:07;16.00;;;12.30;;
64210;SDS011;50528;48.514;14.394;2023-05-07T03:23:40;14.60;;;12.40;;